createdAt,value
2023-05-10T00:00:14.315Z,4.60
2023-05-10T00:03:01.835Z,3.90
2023-05-10T00:05:29.391Z,4.63
2023-05-10T00:07:56.599Z,3.90
2023-05-10T00:10:24.404Z,5.60
2023-05-10T00:12:51.666Z,4.38
2023-05-10T00:15:19.314Z,4.40
2023-05-10T00:17:46.519Z,4.45
2023-05-10T00:20:14.238Z,4.70
2023-05-10T00:22:41.690Z,4.88
2023-05-10T00:25:10.268Z,4.75
2023-05-10T00:27:37.796Z,3.83
2023-05-10T00:30:05.921Z,4.43
2023-05-10T00:32:33.778Z,3.78
2023-05-10T00:35:01.435Z,4.80
2023-05-10T00:37:28.755Z,4.57
2023-05-10T00:39:56.399Z,4.88
2023-05-10T00:42:23.814Z,4.45
2023-05-10T00:44:53.625Z,4.75
2023-05-10T00:47:20.984Z,4.68
2023-05-10T00:49:48.647Z,4.50
2023-05-10T00:52:16.250Z,4.30
2023-05-10T00:54:43.834Z,4.82
2023-05-10T00:57:12.286Z,4.07
2023-05-10T00:59:39.849Z,4.47
2023-05-10T01:02:08.125Z,3.88
2023-05-10T01:04:36.478Z,4.55
2023-05-10T01:07:04.199Z,4.43
2023-05-10T01:09:32.039Z,4.68
2023-05-10T01:12:00.400Z,4.13
2023-05-10T01:14:28.567Z,4.47
2023-05-10T01:16:56.764Z,5.32
2023-05-10T01:19:27.828Z,4.65
2023-05-10T01:22:12.813Z,3.67
2023-05-10T01:25:01.719Z,4.28
2023-05-10T01:27:47.540Z,4.30
2023-05-10T01:30:40.445Z,6.03
2023-05-10T01:36:07.998Z,3.78
2023-05-10T01:38:58.437Z,3.92
2023-05-10T01:41:37.434Z,4.13
2023-05-10T01:44:13.634Z,3.92
2023-05-10T01:46:41.939Z,4.20
2023-05-10T01:49:16.332Z,4.03
2023-05-10T01:51:50.013Z,4.57
2023-05-10T01:54:20.573Z,4.00
2023-05-10T01:56:56.390Z,3.85
2023-05-10T01:59:27.773Z,3.92
2023-05-10T02:01:57.441Z,4.07
2023-05-10T02:04:25.780Z,4.65
2023-05-10T02:06:55.174Z,4.00
2023-05-10T02:09:23.351Z,4.15
2023-05-10T02:11:51.950Z,4.30
2023-05-10T02:14:20.911Z,3.90
2023-05-10T02:16:51.874Z,3.95
2023-05-10T02:19:21.023Z,4.80
2023-05-10T02:21:50.100Z,3.88
2023-05-10T02:24:17.626Z,4.90
2023-05-10T02:26:46.327Z,3.65
2023-05-10T02:29:16.708Z,4.13
2023-05-10T02:31:44.959Z,4.22
2023-05-10T02:34:13.745Z,4.20
2023-05-10T02:36:42.788Z,4.25
2023-05-10T02:39:13.693Z,4.55
2023-05-10T02:41:46.341Z,4.28
2023-05-10T02:44:16.961Z,3.70
2023-05-10T02:46:44.800Z,4.28
2023-05-10T02:49:12.212Z,4.35
2023-05-10T02:51:44.886Z,3.80
2023-05-10T02:54:19.330Z,4.30
2023-05-10T02:56:54.785Z,3.20
2023-05-10T02:59:22.130Z,4.53
2023-05-10T03:01:49.734Z,4.22
2023-05-10T03:04:17.189Z,4.30
2023-05-10T03:06:45.812Z,4.05
2023-05-10T03:09:16.275Z,3.83
2023-05-10T03:12:04.865Z,4.57
2023-05-10T03:15:20.555Z,3.67
2023-05-10T03:17:55.727Z,3.40
2023-05-10T03:20:30.310Z,3.88
2023-05-10T03:23:12.234Z,3.65
2023-05-10T03:25:41.107Z,4.60
2023-05-10T03:28:09.821Z,4.05
2023-05-10T03:30:38.282Z,3.95
2023-05-10T03:33:09.789Z,3.65
2023-05-10T03:35:40.989Z,3.80
2023-05-10T03:38:08.643Z,3.38
2023-05-10T03:40:35.969Z,4.65
2023-05-10T03:43:03.523Z,5.05
2023-05-10T03:45:31.732Z,3.47
2023-05-10T03:48:00.529Z,3.78
2023-05-10T03:50:28.038Z,3.63
2023-05-10T03:52:56.154Z,4.63
2023-05-10T03:55:23.575Z,3.95
2023-05-10T03:57:51.686Z,3.95
2023-05-10T04:00:19.232Z,3.45
2023-05-10T04:02:51.142Z,4.55
2023-05-10T04:05:21.560Z,5.35
2023-05-10T04:07:50.346Z,5.03
2023-05-10T04:10:19.013Z,3.92
2023-05-10T04:12:46.729Z,3.90
2023-05-10T04:15:14.109Z,3.20
2023-05-10T04:17:41.622Z,3.90
2023-05-10T04:20:09.399Z,4.20
2023-05-10T04:22:36.919Z,3.80
2023-05-10T04:25:04.596Z,4.05
2023-05-10T04:27:32.130Z,3.83
2023-05-10T04:29:59.317Z,3.50
2023-05-10T04:32:26.877Z,5.20
2023-05-10T04:34:54.208Z,4.00
2023-05-10T04:37:22.465Z,3.88
2023-05-10T04:39:50.162Z,3.72
2023-05-10T04:42:17.655Z,3.35
2023-05-10T04:44:45.164Z,3.35
2023-05-10T04:47:14.265Z,3.65
2023-05-10T04:49:41.467Z,3.42
2023-05-10T04:52:08.932Z,4.43
2023-05-10T04:54:36.284Z,3.65
2023-05-10T04:57:03.774Z,3.85
2023-05-10T04:59:31.014Z,3.88
2023-05-10T05:01:58.528Z,3.97
2023-05-10T05:04:26.076Z,4.13
2023-05-10T05:06:54.129Z,4.35
2023-05-10T05:09:21.348Z,3.88
2023-05-10T05:11:49.478Z,3.88
2023-05-10T05:14:16.689Z,4.32
2023-05-10T05:16:44.358Z,3.45
2023-05-10T05:19:11.774Z,3.97
2023-05-10T05:21:39.664Z,3.75
2023-05-10T05:24:07.254Z,4.55
2023-05-10T05:26:34.940Z,3.60
2023-05-10T05:29:02.497Z,3.78
2023-05-10T05:31:33.193Z,3.92
2023-05-10T05:34:00.719Z,3.35
2023-05-10T05:36:28.156Z,4.72
2023-05-10T05:38:55.930Z,3.85
2023-05-10T05:41:24.929Z,4.25
2023-05-10T05:43:52.266Z,3.47
2023-05-10T05:46:19.951Z,4.38
2023-05-10T05:48:49.955Z,3.80
2023-05-10T05:51:17.507Z,3.75
2023-05-10T05:53:44.850Z,3.83
2023-05-10T05:56:12.284Z,4.80
2023-05-10T05:58:39.645Z,3.63
2023-05-10T06:01:09.927Z,3.78
2023-05-10T06:03:37.258Z,3.80
2023-05-10T06:06:08.131Z,3.80
2023-05-10T06:08:35.555Z,4.25
2023-05-10T06:11:03.231Z,4.10
2023-05-10T06:13:33.451Z,4.00
2023-05-10T06:16:01.671Z,3.95
2023-05-10T06:18:28.999Z,3.65
2023-05-10T06:20:56.703Z,3.42
2023-05-10T06:23:24.017Z,3.80
2023-05-10T06:25:51.862Z,4.55
2023-05-10T06:28:19.145Z,3.97
2023-05-10T06:30:46.733Z,4.38
2023-05-10T06:33:14.286Z,4.00
2023-05-10T06:35:41.898Z,4.10
2023-05-10T06:38:09.184Z,4.63
2023-05-10T06:40:37.058Z,4.28
2023-05-10T06:43:04.426Z,4.35
2023-05-10T06:45:32.055Z,4.80
2023-05-10T06:47:59.398Z,4.05
2023-05-10T06:50:27.091Z,3.63
2023-05-10T06:52:54.533Z,4.10
2023-05-10T06:55:22.318Z,3.75
2023-05-10T06:57:49.625Z,4.68
2023-05-10T07:00:18.153Z,4.68
2023-05-10T07:02:45.793Z,3.47
2023-05-10T07:05:13.889Z,3.78
2023-05-10T07:07:41.350Z,4.00
2023-05-10T07:10:09.351Z,5.85
2023-05-10T07:12:36.718Z,4.70
2023-05-10T07:15:05.247Z,4.07
2023-05-10T07:17:34.390Z,3.97
2023-05-10T07:20:02.794Z,3.95
2023-05-10T07:22:30.237Z,4.28
2023-05-10T07:24:58.114Z,4.15
2023-05-10T07:27:25.525Z,3.88
2023-05-10T07:29:52.947Z,3.80
2023-05-10T07:32:20.230Z,3.35
2023-05-10T07:34:47.917Z,3.42
2023-05-10T07:37:15.361Z,4.22
2023-05-10T07:39:42.877Z,4.43
2023-05-10T07:42:10.389Z,3.58
2023-05-10T07:44:37.845Z,3.65
2023-05-10T07:47:05.157Z,4.40
2023-05-10T07:49:32.718Z,3.80
2023-05-10T07:51:59.977Z,3.63
2023-05-10T07:54:27.826Z,3.20
2023-05-10T07:56:55.027Z,2.78
2023-05-10T07:59:22.564Z,3.35
2023-05-10T08:01:49.862Z,3.20
2023-05-10T08:04:17.366Z,3.83
2023-05-10T08:06:44.683Z,2.60
2023-05-10T08:09:12.260Z,3.05
2023-05-10T08:11:39.679Z,2.40
2023-05-10T08:14:07.397Z,2.92
2023-05-10T08:16:35.521Z,3.08
2023-05-10T08:19:03.148Z,3.05
2023-05-10T08:21:32.182Z,2.70
2023-05-10T08:23:59.966Z,3.03
2023-05-10T08:26:27.473Z,3.00
2023-05-10T08:28:54.990Z,3.13
2023-05-10T08:31:22.714Z,2.88
2023-05-10T08:33:52.506Z,2.40
2023-05-10T08:36:25.571Z,2.78
2023-05-10T08:38:54.873Z,2.55
2023-05-10T08:41:23.383Z,3.10
2023-05-10T08:43:52.309Z,2.95
2023-05-10T08:46:20.535Z,3.13
2023-05-10T08:48:49.156Z,2.63
2023-05-10T08:51:18.987Z,2.80
2023-05-10T08:53:47.432Z,3.47
2023-05-10T08:56:16.828Z,2.60
2023-05-10T08:58:46.347Z,2.47
2023-05-10T09:01:14.618Z,2.92
2023-05-10T09:03:43.166Z,6.13
2023-05-10T09:06:10.911Z,3.05
2023-05-10T09:08:41.843Z,2.88
2023-05-10T09:11:10.623Z,2.55
2023-05-10T09:13:38.504Z,2.63
2023-05-10T09:16:20.433Z,2.58
2023-05-10T09:18:53.246Z,3.15
2023-05-10T09:21:21.712Z,2.22
2023-05-10T09:23:55.066Z,4.18
2023-05-10T09:26:25.838Z,2.95
2023-05-10T09:28:53.725Z,2.60
2023-05-10T09:31:21.847Z,2.60
2023-05-10T09:33:50.594Z,4.05
2023-05-10T09:36:18.399Z,3.33
2023-05-10T09:38:48.181Z,2.17
2023-05-10T09:41:23.012Z,2.63
2023-05-10T09:43:52.405Z,2.50
2023-05-10T09:46:20.085Z,2.50
2023-05-10T09:48:48.981Z,2.08
2023-05-10T09:51:28.019Z,2.38
2023-05-10T09:54:15.751Z,2.30
2023-05-10T09:56:43.874Z,2.33
2023-05-10T09:59:13.317Z,2.60
2023-05-10T10:01:41.764Z,2.35
2023-05-10T10:04:11.412Z,2.15
2023-05-10T10:06:42.420Z,3.45
2023-05-10T10:09:11.165Z,2.78
2023-05-10T10:11:39.670Z,2.63
2023-05-10T10:14:07.860Z,2.13
2023-05-10T10:16:35.991Z,2.08
2023-05-10T10:19:04.142Z,2.63
2023-05-10T10:21:32.071Z,1.90
2023-05-10T10:23:59.975Z,1.98
2023-05-10T10:26:27.637Z,2.60
2023-05-10T10:29:14.368Z,2.55
2023-05-10T10:32:04.545Z,2.53
2023-05-10T10:34:33.078Z,1.85
2023-05-10T10:37:05.426Z,2.35
2023-05-10T10:39:34.159Z,2.05
2023-05-10T10:42:03.726Z,2.50
2023-05-10T10:44:37.862Z,2.20
2023-05-10T10:47:14.950Z,2.03
2023-05-10T10:49:42.841Z,2.13
2023-05-10T10:52:23.517Z,2.03
2023-05-10T10:54:53.761Z,2.90
2023-05-10T10:57:27.245Z,1.73
2023-05-10T11:00:13.641Z,2.33
2023-05-10T11:02:45.342Z,1.98
2023-05-10T11:05:25.869Z,2.03
2023-05-10T11:07:56.916Z,2.03
2023-05-10T11:10:25.172Z,2.13
2023-05-10T11:12:56.597Z,2.63
2023-05-10T11:15:30.894Z,1.90
2023-05-10T11:17:58.672Z,1.92
2023-05-10T11:20:34.197Z,1.95
2023-05-10T11:23:16.484Z,1.95
2023-05-10T11:25:47.695Z,2.65
2023-05-10T11:28:15.435Z,2.78
2023-05-10T11:30:45.008Z,2.22
2023-05-10T11:33:17.961Z,2.05
2023-05-10T11:35:48.212Z,2.33
2023-05-10T11:38:15.982Z,1.83
2023-05-10T11:40:44.579Z,2.22
2023-05-10T11:43:12.571Z,2.50
2023-05-10T11:45:41.823Z,2.20
2023-05-10T11:48:09.642Z,1.80
2023-05-10T11:50:37.592Z,2.25
2023-05-10T11:53:05.312Z,2.08
2023-05-10T11:55:35.370Z,1.38
2023-05-10T11:58:03.725Z,1.98
2023-05-10T12:00:32.133Z,1.92
2023-05-10T12:03:00.275Z,1.73
2023-05-10T12:05:28.405Z,2.28
2023-05-10T12:08:12.114Z,2.63
2023-05-10T12:10:40.309Z,2.35
2023-05-10T12:13:12.633Z,1.90
2023-05-10T12:15:40.121Z,2.72
2023-05-10T12:18:09.257Z,2.75
2023-05-10T12:20:37.369Z,2.88
2023-05-10T12:23:04.845Z,2.22
2023-05-10T12:25:39.723Z,2.63
2023-05-10T12:28:09.420Z,1.85
2023-05-10T12:30:38.355Z,1.88
2023-05-10T12:33:09.462Z,2.30
2023-05-10T12:35:54.774Z,2.40
2023-05-10T12:38:36.533Z,2.35
2023-05-10T12:43:32.582Z,2.25
2023-05-10T12:46:06.257Z,1.70
2023-05-10T12:48:35.094Z,3.97
2023-05-10T12:51:03.728Z,2.58
2023-05-10T12:53:31.189Z,2.80
2023-05-10T12:55:58.948Z,2.33
2023-05-10T12:58:34.815Z,2.05
2023-05-10T13:01:04.173Z,1.58
2023-05-10T13:03:34.096Z,1.98
2023-05-10T13:06:01.601Z,2.42
2023-05-10T13:08:30.789Z,2.00
2023-05-10T13:10:58.330Z,2.10
2023-05-10T13:13:25.635Z,1.55
2023-05-10T13:15:53.248Z,2.17
2023-05-10T13:18:20.956Z,1.65
2023-05-10T13:20:50.609Z,2.28
2023-05-10T13:23:17.848Z,2.55
2023-05-10T13:25:45.383Z,1.98
2023-05-10T13:28:15.030Z,2.00
2023-05-10T13:30:42.633Z,2.15
2023-05-10T13:33:10.012Z,2.55
2023-05-10T13:35:37.540Z,2.03
2023-05-10T13:38:05.057Z,1.85
2023-05-10T13:40:32.554Z,2.08
2023-05-10T13:42:59.857Z,2.00
2023-05-10T13:45:27.452Z,1.60
2023-05-10T13:47:55.534Z,2.35
2023-05-10T13:50:24.279Z,1.88
2023-05-10T13:52:51.562Z,2.20
2023-05-10T13:55:19.503Z,2.20
2023-05-10T13:57:47.424Z,1.83
2023-05-10T14:00:15.771Z,1.85
2023-05-10T14:02:43.130Z,1.90
2023-05-10T14:05:11.182Z,1.75
2023-05-10T14:07:38.933Z,2.40
2023-05-10T14:10:07.747Z,1.95
2023-05-10T14:12:35.671Z,1.70
2023-05-10T14:15:03.590Z,1.52
2023-05-10T14:17:31.432Z,2.05
2023-05-10T14:19:59.726Z,1.77
2023-05-10T14:22:27.152Z,2.25
2023-05-10T14:24:54.603Z,2.08
2023-05-10T14:27:22.105Z,1.55
2023-05-10T14:29:49.813Z,1.42
2023-05-10T14:32:17.132Z,1.10
2023-05-10T14:34:44.957Z,1.00
2023-05-10T14:37:15.209Z,1.30
2023-05-10T14:39:43.494Z,2.03
2023-05-10T14:42:11.092Z,1.50
2023-05-10T14:44:39.369Z,1.70
2023-05-10T14:47:10.601Z,1.15
2023-05-10T14:49:39.617Z,1.08
2023-05-10T14:52:07.326Z,2.15
2023-05-10T14:54:36.362Z,1.50
2023-05-10T14:57:05.015Z,1.60
2023-05-10T14:59:32.985Z,1.10
2023-05-10T15:02:01.208Z,1.10
2023-05-10T15:04:29.717Z,1.38
2023-05-10T15:07:00.274Z,1.10
2023-05-10T15:09:29.424Z,1.05
2023-05-10T15:11:57.340Z,1.20
2023-05-10T15:14:25.301Z,1.75
2023-05-10T15:16:52.946Z,1.15
2023-05-10T15:19:21.715Z,0.95
2023-05-10T15:21:49.509Z,0.65
2023-05-10T15:24:17.420Z,2.17
2023-05-10T15:26:45.803Z,1.00
2023-05-10T15:29:20.532Z,1.00
2023-05-10T15:31:52.409Z,0.70
2023-05-10T15:34:20.413Z,1.30
2023-05-10T15:36:47.645Z,1.15
2023-05-10T15:39:15.903Z,1.60
2023-05-10T15:41:46.455Z,0.98
2023-05-10T15:44:14.335Z,1.30
2023-05-10T15:46:41.944Z,1.08
2023-05-10T15:49:10.343Z,0.90
2023-05-10T15:51:38.784Z,0.90
2023-05-10T15:54:08.715Z,1.63
2023-05-10T15:56:36.969Z,1.42
2023-05-10T15:59:08.625Z,1.00
2023-05-10T16:01:36.342Z,1.38
2023-05-10T16:04:04.770Z,1.05
2023-05-10T16:06:32.762Z,0.82
2023-05-10T16:09:00.291Z,0.95
2023-05-10T16:11:27.593Z,1.25
2023-05-10T16:13:55.432Z,1.10
2023-05-10T16:16:22.865Z,1.63
2023-05-10T16:18:52.392Z,1.05
2023-05-10T16:21:19.843Z,1.48
2023-05-10T16:23:47.418Z,1.40
2023-05-10T16:26:14.740Z,1.00
2023-05-10T16:28:42.236Z,1.00
2023-05-10T16:31:09.783Z,1.50
2023-05-10T16:33:37.596Z,1.00
2023-05-10T16:36:06.156Z,1.52
2023-05-10T16:38:33.686Z,1.23
2023-05-10T16:41:03.627Z,1.02
2023-05-10T16:43:32.690Z,1.27
2023-05-10T16:46:00.309Z,0.90
2023-05-10T16:48:28.212Z,1.52
2023-05-10T16:50:55.569Z,1.40
2023-05-10T16:53:23.076Z,1.08
2023-05-10T16:55:50.452Z,1.42
2023-05-10T16:58:18.007Z,1.20
2023-05-10T17:00:45.460Z,1.27
2023-05-10T17:03:13.150Z,1.42
2023-05-10T17:05:41.256Z,1.20
2023-05-10T17:08:09.630Z,1.10
2023-05-10T17:10:39.697Z,1.67
2023-05-10T17:13:10.070Z,1.92
2023-05-10T17:15:38.763Z,1.85
2023-05-10T17:18:07.538Z,1.85
2023-05-10T17:20:35.055Z,2.03
2023-05-10T17:23:03.346Z,1.48
2023-05-10T17:25:30.833Z,1.98
2023-05-10T17:27:58.396Z,2.25
2023-05-10T17:30:28.188Z,2.45
2023-05-10T17:32:56.295Z,2.28
2023-05-10T17:35:24.177Z,2.40
2023-05-10T17:37:51.825Z,2.17
2023-05-10T17:40:19.320Z,2.08
2023-05-10T17:42:47.028Z,2.40
2023-05-10T17:45:14.917Z,3.20
2023-05-10T17:47:42.722Z,2.92
2023-05-10T17:50:10.480Z,3.67
2023-05-10T17:52:38.095Z,2.35
2023-05-10T17:55:05.930Z,2.50
2023-05-10T17:57:33.643Z,2.78
2023-05-10T18:00:02.250Z,3.13
2023-05-10T18:02:32.862Z,2.97
2023-05-10T18:05:01.714Z,2.55
2023-05-10T18:07:32.683Z,3.38
2023-05-10T18:10:01.132Z,4.25
2023-05-10T18:12:31.338Z,2.38
2023-05-10T18:14:59.172Z,2.47
2023-05-10T18:17:27.089Z,3.05
2023-05-10T18:19:54.298Z,2.92
2023-05-10T18:22:22.684Z,2.85
2023-05-10T18:24:49.913Z,3.15
2023-05-10T18:27:18.020Z,3.08
2023-05-10T18:29:45.665Z,3.20
2023-05-10T18:32:13.122Z,2.88
2023-05-10T18:34:40.382Z,3.42
2023-05-10T18:37:08.146Z,3.10
2023-05-10T18:39:37.265Z,3.38
2023-05-10T18:42:08.520Z,3.30
2023-05-10T18:44:36.624Z,3.67
2023-05-10T18:47:04.521Z,3.50
2023-05-10T18:49:32.357Z,3.70
2023-05-10T18:52:00.801Z,3.05
2023-05-10T18:54:28.198Z,4.25
2023-05-10T18:56:58.625Z,4.20
2023-05-10T18:59:27.840Z,4.43
2023-05-10T19:01:57.108Z,3.65
2023-05-10T19:04:24.845Z,4.90
2023-05-10T19:06:52.903Z,4.22
2023-05-10T19:09:21.078Z,4.60
2023-05-10T19:11:48.753Z,4.28
2023-05-10T19:14:16.338Z,4.40
2023-05-10T19:16:43.918Z,5.20
2023-05-10T19:19:12.256Z,3.97
2023-05-10T19:21:40.296Z,4.60
2023-05-10T19:24:07.927Z,3.83
2023-05-10T19:26:36.292Z,4.50
2023-05-10T19:29:03.721Z,3.45
2023-05-10T19:31:33.507Z,4.82
2023-05-10T19:34:01.156Z,4.07
2023-05-10T19:36:28.833Z,4.13
2023-05-10T19:38:56.014Z,6.45
2023-05-10T19:41:24.207Z,5.45
2023-05-10T19:43:52.056Z,5.72
2023-05-10T19:46:20.368Z,4.22
2023-05-10T19:48:51.975Z,4.97
2023-05-10T19:51:19.574Z,5.05
2023-05-10T19:53:47.252Z,4.20
2023-05-10T19:56:14.959Z,4.32
2023-05-10T19:58:43.319Z,5.97
2023-05-10T20:01:11.763Z,5.47
2023-05-10T20:03:39.033Z,4.57
2023-05-10T20:06:06.668Z,5.50
2023-05-10T20:08:33.950Z,4.90
2023-05-10T20:11:03.540Z,5.18
2023-05-10T20:13:31.068Z,4.82
2023-05-10T20:15:59.776Z,4.30
2023-05-10T20:18:27.646Z,5.30
2023-05-10T20:20:56.165Z,8.80
2023-05-10T20:23:23.445Z,5.28
2023-05-10T20:25:51.400Z,5.50
2023-05-10T20:28:23.056Z,6.38
2023-05-10T20:30:54.723Z,6.28
2023-05-10T20:33:25.191Z,5.83
2023-05-10T20:35:52.767Z,6.43
2023-05-10T20:38:19.997Z,5.18
2023-05-10T20:40:47.610Z,6.38
2023-05-10T20:43:14.852Z,5.28
2023-05-10T20:45:42.627Z,4.05
2023-05-10T20:48:09.982Z,5.05
2023-05-10T20:50:37.617Z,5.20
2023-05-10T20:53:05.058Z,5.22
2023-05-10T20:55:32.964Z,5.28
2023-05-10T20:58:01.541Z,5.55
2023-05-10T21:00:30.542Z,4.38
2023-05-10T21:02:57.932Z,4.38
2023-05-10T21:05:25.660Z,4.32
2023-05-10T21:07:54.247Z,4.43
2023-05-10T21:10:23.077Z,4.35
2023-05-10T21:12:50.518Z,3.92
2023-05-10T21:15:18.080Z,5.55
2023-05-10T21:17:45.829Z,3.80
2023-05-10T21:20:13.875Z,3.45
2023-05-10T21:22:41.089Z,5.78
2023-05-10T21:25:08.976Z,4.32
2023-05-10T21:27:36.270Z,3.38
2023-05-10T21:30:04.000Z,3.53
2023-05-10T21:32:31.320Z,4.13
2023-05-10T21:34:59.158Z,3.53
2023-05-10T21:37:26.404Z,3.97
2023-05-10T21:39:54.186Z,3.75
2023-05-10T21:42:21.429Z,3.85
2023-05-10T21:44:48.957Z,3.97
2023-05-10T21:47:17.276Z,4.18
2023-05-10T21:49:45.127Z,3.95
2023-05-10T21:52:12.549Z,3.58
2023-05-10T21:54:40.378Z,3.88
2023-05-10T21:57:07.715Z,3.45
2023-05-10T21:59:35.384Z,3.88
2023-05-10T22:02:02.593Z,4.38
2023-05-10T22:04:30.088Z,3.70
2023-05-10T22:06:57.545Z,3.92
2023-05-10T22:09:25.471Z,3.15
2023-05-10T22:11:52.695Z,3.85
2023-05-10T22:14:20.266Z,4.40
2023-05-10T22:16:47.555Z,3.60
2023-05-10T22:19:15.049Z,4.32
2023-05-10T22:21:44.652Z,3.78
2023-05-10T22:24:12.120Z,3.78
2023-05-10T22:26:39.368Z,6.50
2023-05-10T22:29:07.003Z,3.50
2023-05-10T22:31:34.485Z,3.95
2023-05-10T22:34:02.249Z,3.85
2023-05-10T22:36:30.397Z,3.63
2023-05-10T22:38:58.314Z,4.22
2023-05-10T22:41:25.719Z,3.92
2023-05-10T22:43:53.479Z,4.32
2023-05-10T22:46:20.792Z,5.25
2023-05-10T22:48:48.857Z,3.88
2023-05-10T22:51:16.424Z,4.45
2023-05-10T22:53:45.348Z,3.65
2023-05-10T22:56:13.175Z,4.05
2023-05-10T22:58:41.014Z,3.55
2023-05-10T23:01:08.977Z,4.07
2023-05-10T23:03:36.783Z,4.75
2023-05-10T23:06:04.440Z,3.78
2023-05-10T23:08:32.346Z,3.95
2023-05-10T23:10:59.579Z,3.75
2023-05-10T23:13:27.223Z,3.75
2023-05-10T23:15:54.471Z,3.47
2023-05-10T23:18:22.429Z,4.28
2023-05-10T23:20:49.676Z,4.32
2023-05-10T23:23:17.337Z,4.43
2023-05-10T23:25:44.723Z,4.38
2023-05-10T23:28:12.316Z,5.10
2023-05-10T23:30:39.680Z,4.07
2023-05-10T23:33:08.476Z,3.78
2023-05-10T23:35:35.756Z,4.00
2023-05-10T23:38:03.309Z,3.85
2023-05-10T23:40:30.603Z,3.20
2023-05-10T23:42:58.207Z,3.78
2023-05-10T23:45:25.610Z,3.75
2023-05-10T23:47:53.194Z,4.15
2023-05-10T23:50:20.513Z,3.80
2023-05-10T23:52:48.388Z,3.92
2023-05-10T23:55:15.981Z,4.47
2023-05-10T23:57:43.644Z,3.92
